createdAt,value
2022-08-31T00:01:28.007Z,17.55
2022-08-31T00:06:31.895Z,17.43
2022-08-31T00:11:37.930Z,17.45
2022-08-31T00:16:43.292Z,17.41
2022-08-31T00:21:46.274Z,17.39
2022-08-31T00:26:50.613Z,17.34
2022-08-31T00:31:53.997Z,17.30
2022-08-31T00:36:57.044Z,17.25
2022-08-31T00:42:01.681Z,17.17
2022-08-31T00:47:04.859Z,17.13
2022-08-31T00:52:12.304Z,17.11
2022-08-31T00:57:17.706Z,17.08
2022-08-31T01:02:23.918Z,17.03
2022-08-31T01:07:27.532Z,16.96
2022-08-31T01:12:32.049Z,16.96
2022-08-31T01:17:37.663Z,16.91
2022-08-31T01:22:49.900Z,16.85
2022-08-31T01:27:55.156Z,16.79
2022-08-31T01:32:58.052Z,16.74
2022-08-31T01:38:01.471Z,16.74
2022-08-31T01:43:06.305Z,16.71
2022-08-31T01:48:11.521Z,16.64
2022-08-31T01:53:14.927Z,16.56
2022-08-31T01:58:19.508Z,16.52
2022-08-31T02:03:31.484Z,16.45
2022-08-31T02:08:34.669Z,16.38
2022-08-31T02:13:39.629Z,16.37
2022-08-31T02:18:42.596Z,16.21
2022-08-31T02:23:48.287Z,16.23
2022-08-31T02:28:52.719Z,16.20
2022-08-31T02:33:56.476Z,16.14
2022-08-31T02:38:59.968Z,16.10
2022-08-31T02:44:05.107Z,16.08
2022-08-31T02:49:08.317Z,16.02
2022-08-31T02:54:12.375Z,15.97
2022-08-31T02:59:16.876Z,15.93
2022-08-31T03:04:21.485Z,15.88
2022-08-31T03:09:24.764Z,15.82
2022-08-31T03:14:29.216Z,15.77
2022-08-31T03:19:32.159Z,15.72
2022-08-31T03:24:35.070Z,15.69
2022-08-31T03:29:39.361Z,15.65
2022-08-31T03:35:00.546Z,15.63
2022-08-31T03:40:04.839Z,15.57
2022-08-31T03:45:11.209Z,15.56
2022-08-31T03:50:16.190Z,15.49
2022-08-31T03:55:29.962Z,15.47
2022-08-31T04:00:35.473Z,15.43
2022-08-31T04:05:45.263Z,15.43
2022-08-31T04:10:50.155Z,15.41
2022-08-31T04:16:14.962Z,15.35
2022-08-31T04:21:36.222Z,15.26
2022-08-31T04:26:41.588Z,15.19
2022-08-31T04:31:47.127Z,15.10
2022-08-31T04:36:50.067Z,15.04
2022-08-31T04:41:53.797Z,14.98
2022-08-31T04:46:58.754Z,14.91
2022-08-31T04:52:03.090Z,14.88
2022-08-31T04:57:06.279Z,14.85
2022-08-31T05:02:10.954Z,14.76
2022-08-31T05:07:17.656Z,14.72
2022-08-31T05:12:21.342Z,14.70
2022-08-31T05:17:25.733Z,14.67
2022-08-31T05:22:30.452Z,14.60
2022-08-31T05:27:35.173Z,14.60
2022-08-31T05:32:39.586Z,14.64
2022-08-31T05:37:46.372Z,14.64
2022-08-31T05:42:50.350Z,14.61
2022-08-31T05:47:54.720Z,14.63
2022-08-31T05:52:57.791Z,14.67
2022-08-31T05:58:01.518Z,14.70
2022-08-31T06:03:06.082Z,14.73
2022-08-31T06:08:13.227Z,14.79
2022-08-31T06:13:20.125Z,14.81
2022-08-31T06:18:24.832Z,14.88
2022-08-31T06:23:30.031Z,14.95
2022-08-31T06:28:33.833Z,15.00
2022-08-31T06:33:40.202Z,15.05
2022-08-31T06:38:51.688Z,15.11
2022-08-31T06:44:14.560Z,15.19
2022-08-31T06:49:37.486Z,15.28
2022-08-31T06:54:40.504Z,15.37
2022-08-31T07:00:01.918Z,15.46
2022-08-31T07:05:25.027Z,15.57
2022-08-31T07:10:30.013Z,15.68
2022-08-31T07:15:32.972Z,15.79
2022-08-31T07:20:37.852Z,15.90
2022-08-31T07:25:45.062Z,15.95
2022-08-31T07:30:50.226Z,16.06
2022-08-31T07:35:55.946Z,16.13
2022-08-31T07:41:51.196Z,16.23
2022-08-31T07:46:55.220Z,16.40
2022-08-31T07:52:01.423Z,16.61
2022-08-31T07:57:25.722Z,16.85
2022-08-31T08:02:31.063Z,17.21
2022-08-31T08:07:36.254Z,17.48
2022-08-31T08:13:04.946Z,17.76
2022-08-31T08:18:20.879Z,18.02
2022-08-31T08:23:29.843Z,18.43
2022-08-31T08:28:56.129Z,18.80
2022-08-31T08:34:00.964Z,19.16
2022-08-31T08:39:08.456Z,19.57
2022-08-31T08:44:17.841Z,19.63
2022-08-31T08:49:27.202Z,19.89
2022-08-31T08:54:35.739Z,20.32
2022-08-31T08:59:41.886Z,20.82
2022-08-31T09:05:04.392Z,21.21
2022-08-31T09:10:32.709Z,21.53
2022-08-31T09:15:49.532Z,22.05
2022-08-31T09:21:07.190Z,22.65
2022-08-31T09:26:17.040Z,23.25
2022-08-31T09:31:39.886Z,23.61
2022-08-31T09:36:43.670Z,23.76
2022-08-31T09:41:50.780Z,23.38
2022-08-31T09:46:56.712Z,23.46
2022-08-31T09:52:44.193Z,23.69
2022-08-31T09:57:54.507Z,23.58
2022-08-31T10:03:09.894Z,23.84
2022-08-31T10:08:28.107Z,24.25
2022-08-31T10:13:39.331Z,24.21
2022-08-31T10:18:56.126Z,23.91
2022-08-31T10:24:10.395Z,24.33
2022-08-31T10:29:23.474Z,24.30
2022-08-31T10:34:46.046Z,24.51
2022-08-31T10:39:53.256Z,24.66
2022-08-31T10:45:09.232Z,25.01
2022-08-31T10:50:17.037Z,25.37
2022-08-31T10:55:33.191Z,25.94
2022-08-31T11:00:49.706Z,26.24
2022-08-31T11:06:00.121Z,26.27
2022-08-31T11:11:05.977Z,26.28
2022-08-31T11:16:31.264Z,26.09
2022-08-31T11:22:17.595Z,26.41
2022-08-31T11:27:24.717Z,26.60
2022-08-31T11:32:34.856Z,27.12
2022-08-31T11:37:57.246Z,27.29
2022-08-31T11:43:01.507Z,26.91
2022-08-31T11:48:12.632Z,27.15
2022-08-31T11:53:25.399Z,27.07
2022-08-31T11:58:33.733Z,26.98
2022-08-31T12:03:53.424Z,27.20
2022-08-31T12:09:14.136Z,27.54
2022-08-31T12:14:25.441Z,27.78
2022-08-31T12:20:00.547Z,27.61
2022-08-31T12:25:15.903Z,27.61
2022-08-31T12:30:21.965Z,27.77
2022-08-31T12:35:27.854Z,27.81
2022-08-31T12:40:33.154Z,27.87
2022-08-31T12:45:52.943Z,28.13
2022-08-31T12:51:05.180Z,28.26
2022-08-31T12:56:14.863Z,28.36
2022-08-31T13:01:22.836Z,28.29
2022-08-31T13:06:29.682Z,28.66
2022-08-31T13:11:40.690Z,28.75
2022-08-31T13:16:48.110Z,28.73
2022-08-31T13:21:57.117Z,28.72
2022-08-31T13:27:09.099Z,28.39
2022-08-31T13:32:15.055Z,28.22
2022-08-31T13:37:25.325Z,27.83
2022-08-31T13:42:39.536Z,27.77
2022-08-31T13:47:57.436Z,28.05
2022-08-31T13:53:25.942Z,28.52
2022-08-31T13:58:30.305Z,28.95
2022-08-31T14:03:46.617Z,29.19
2022-08-31T14:08:53.554Z,29.26
2022-08-31T14:14:05.944Z,29.58
2022-08-31T14:19:10.795Z,29.79
2022-08-31T14:24:16.723Z,29.89
2022-08-31T14:29:19.783Z,29.94
2022-08-31T14:34:30.326Z,29.65
2022-08-31T14:39:37.858Z,29.31
2022-08-31T14:44:43.043Z,29.01
2022-08-31T14:49:46.393Z,29.39
2022-08-31T14:54:50.870Z,29.23
2022-08-31T14:59:57.678Z,29.47
2022-08-31T15:05:06.648Z,29.24
2022-08-31T15:10:13.062Z,29.11
2022-08-31T15:15:21.101Z,29.53
2022-08-31T15:20:24.766Z,29.65
2022-08-31T15:25:29.151Z,29.59
2022-08-31T15:30:33.858Z,29.24
2022-08-31T15:35:41.718Z,29.16
2022-08-31T15:40:46.515Z,29.08
2022-08-31T15:45:49.755Z,28.81
2022-08-31T15:51:00.240Z,28.51
2022-08-31T15:56:06.737Z,28.38
2022-08-31T16:01:16.303Z,28.15
2022-08-31T16:06:21.905Z,28.04
2022-08-31T16:11:28.200Z,27.85
2022-08-31T16:16:35.587Z,27.66
2022-08-31T16:21:45.623Z,28.08
2022-08-31T16:26:55.198Z,28.48
2022-08-31T16:31:58.246Z,28.47
2022-08-31T16:37:07.177Z,28.32
2022-08-31T16:42:12.930Z,28.07
2022-08-31T16:47:18.861Z,27.77
2022-08-31T16:52:24.238Z,27.34
2022-08-31T16:57:32.649Z,27.15
2022-08-31T17:02:35.987Z,26.96
2022-08-31T17:07:42.651Z,26.84
2022-08-31T17:12:48.347Z,26.61
2022-08-31T17:17:51.353Z,26.52
2022-08-31T17:22:56.938Z,26.42
2022-08-31T17:28:07.713Z,26.30
2022-08-31T17:33:12.727Z,26.07
2022-08-31T17:38:15.778Z,25.95
2022-08-31T17:43:21.964Z,25.83
2022-08-31T17:48:28.192Z,25.55
2022-08-31T17:53:34.239Z,25.27
2022-08-31T17:58:38.650Z,24.94
2022-08-31T18:03:41.883Z,24.71
2022-08-31T18:08:44.878Z,24.41
2022-08-31T18:13:53.370Z,24.16
2022-08-31T18:18:56.702Z,23.88
2022-08-31T18:23:59.920Z,23.68
2022-08-31T18:29:06.591Z,23.46
2022-08-31T18:34:13.769Z,23.24
2022-08-31T18:39:40.816Z,23.00
2022-08-31T18:45:05.928Z,22.78
2022-08-31T18:50:09.766Z,22.55
2022-08-31T18:55:12.889Z,22.32
2022-08-31T19:00:17.894Z,22.13
2022-08-31T19:05:21.000Z,21.95
2022-08-31T19:10:25.461Z,21.79
2022-08-31T19:15:35.919Z,21.67
2022-08-31T19:20:39.534Z,21.49
2022-08-31T19:25:43.578Z,21.29
2022-08-31T19:30:48.788Z,21.19
2022-08-31T19:35:59.478Z,21.10
2022-08-31T19:41:07.216Z,21.01
2022-08-31T19:46:14.306Z,20.90
2022-08-31T19:51:21.879Z,20.72
2022-08-31T19:56:30.545Z,20.58
2022-08-31T20:01:35.396Z,20.47
2022-08-31T20:06:39.326Z,20.35
2022-08-31T20:11:42.553Z,20.26
2022-08-31T20:16:47.780Z,20.15
2022-08-31T20:21:53.895Z,20.07
2022-08-31T20:27:01.065Z,19.95
2022-08-31T20:32:07.936Z,19.86
2022-08-31T20:37:12.856Z,19.78
2022-08-31T20:42:16.734Z,19.66
2022-08-31T20:47:38.600Z,19.54
2022-08-31T20:52:41.876Z,19.44
2022-08-31T20:57:46.357Z,19.34
2022-08-31T21:02:52.146Z,19.23
2022-08-31T21:07:57.617Z,19.14
2022-08-31T21:13:03.311Z,19.03
2022-08-31T21:18:07.768Z,18.96
2022-08-31T21:23:13.348Z,18.96
2022-08-31T21:28:18.448Z,19.00
2022-08-31T21:33:23.130Z,19.04
2022-08-31T21:38:26.862Z,19.04
2022-08-31T21:43:30.477Z,19.03
2022-08-31T21:48:37.128Z,18.94
2022-08-31T21:53:41.316Z,18.84
2022-08-31T21:58:45.057Z,18.72
2022-08-31T22:03:53.892Z,18.60
2022-08-31T22:09:02.850Z,18.57
2022-08-31T22:14:08.481Z,18.53
2022-08-31T22:19:14.611Z,18.48
2022-08-31T22:24:27.339Z,18.33
2022-08-31T22:29:33.003Z,18.32
2022-08-31T22:34:38.835Z,18.19
2022-08-31T22:39:42.773Z,18.16
2022-08-31T22:44:46.046Z,18.08
2022-08-31T22:49:50.575Z,18.01
2022-08-31T22:54:53.962Z,17.96
2022-08-31T22:59:57.084Z,17.90
2022-08-31T23:05:03.567Z,17.83
2022-08-31T23:10:09.141Z,17.78
2022-08-31T23:15:15.294Z,17.73
2022-08-31T23:20:24.405Z,17.70
2022-08-31T23:25:27.617Z,17.64
2022-08-31T23:30:30.921Z,17.46
2022-08-31T23:35:35.375Z,17.49
2022-08-31T23:40:38.563Z,17.44
2022-08-31T23:45:41.969Z,17.39
2022-08-31T23:50:46.437Z,17.43
2022-08-31T23:55:50.223Z,17.44
